Impacts TAF Board INFO
FOR SITUATIONAL AWARENESS. NOT TO BE USED FOR FLIGHT PLANNING PURPOSES.
IDs:

KSLC - Salt Lake City Intl, UT, US

Issued at 1502 UTC 18 Jan 2018
Updated at 1726 UTC 18 Jan 2018
Potential Impact None Slight Moderate High
Time<<19/18Z 19/19Z 19/20Z 19/21Z 19/22Z 19/23Z 20/00Z 20/01Z 20/02Z 20/03Z 20/04Z 20/05Z 20/06Z
Type
VIS
CIG
Cover
FltCat
WX
WDir
WSpd
WGst

Raw TAF
KSLC 181502Z 1815/1918 13010KT P6SM OVC200
  FM181900 18011KT P6SM BKN150 OVC200
  FM190400 17016G23KT P6SM SCT100 BKN150
  FM191000 18018G28KT P6SM SCT090 BKN130


METAR Board
Radar Display
Forecast Discussion

FOR SITUATIONAL AWARENESS. NOT TO BE USED FOR FLIGHT PLANNING PURPOSES.